Lakeside Marblehead, Ohio
Current Conditions -  °F | °C
As of 8:33 AM on Thursday 30 Oct 2014 (Local Time) from KPCW Reporting Station
Broken Clouds Broken Clouds  
Wind Chill: 40°   Ceiling: 2600
Heat Index: 45°   Visibility: 10mi
Dew Point: 37°   Wind: 8mph
Humidity: 76%   Direction: 360°N
Pressure: 30.12"   Gusts: NA
Location:  41.53°N, 82.76°W
Report Text: KPCW 301233Z AUTO 36007KT 10SM BKN026 07/03 A3012 RMK AO2 $
Loading
Personal Weather Stations






























Interactive Weather Map
Tropical Storm Tracking
New forecast layout! Learn more

10-Day Weather Forecast

Advertisements
Track Severe Weather on mobile